sensor_id;sensor_type;location;lat;lon;timestamp;temperature;humidity
15698;DHT22;7949;48.726;9.102;2023-03-23T00:01:59;13.00;99.90
15698;DHT22;7949;48.726;9.102;2023-03-23T00:04:26;13.00;99.90
15698;DHT22;7949;48.726;9.102;2023-03-23T00:06:55;13.00;99.90
15698;DHT22;7949;48.726;9.102;2023-03-23T00:09:22;13.10;99.90
15698;DHT22;7949;48.726;9.102;2023-03-23T00:11:51;13.10;99.90
15698;DHT22;7949;48.726;9.102;2023-03-23T00:14:23;13.20;99.90
15698;DHT22;7949;48.726;9.102;2023-03-23T00:16:50;13.10;99.90
15698;DHT22;7949;48.726;9.102;2023-03-23T00:19:17;13.20;99.90
15698;DHT22;7949;48.726;9.102;2023-03-23T00:21:46;13.20;99.90
15698;DHT22;7949;48.726;9.102;2023-03-23T00:24:14;13.20;99.90
15698;DHT22;7949;48.726;9.102;2023-03-23T00:26:44;13.20;99.90
15698;DHT22;7949;48.726;9.102;2023-03-23T00:29:16;13.20;99.90
15698;DHT22;7949;48.726;9.102;2023-03-23T00:31:45;13.20;99.90
15698;DHT22;7949;48.726;9.102;2023-03-23T00:34:14;13.20;99.90
15698;DHT22;7949;48.726;9.102;2023-03-23T00:36:43;13.10;99.90
15698;DHT22;7949;48.726;9.102;2023-03-23T00:39:10;13.10;99.90
15698;DHT22;7949;48.726;9.102;2023-03-23T00:41:37;13.00;99.90
15698;DHT22;7949;48.726;9.102;2023-03-23T00:44:05;13.00;99.90
15698;DHT22;7949;48.726;9.102;2023-03-23T00:46:35;13.10;99.90
15698;DHT22;7949;48.726;9.102;2023-03-23T00:49:11;13.10;99.90
15698;DHT22;7949;48.726;9.102;2023-03-23T00:51:39;13.00;99.90
15698;DHT22;7949;48.726;9.102;2023-03-23T00:54:06;12.90;99.90
15698;DHT22;7949;48.726;9.102;2023-03-23T00:56:32;12.80;99.90
15698;DHT22;7949;48.726;9.102;2023-03-23T00:58:59;12.80;99.90
15698;DHT22;7949;48.726;9.102;2023-03-23T01:01:26;12.80;99.90
15698;DHT22;7949;48.726;9.102;2023-03-23T01:03:54;12.80;99.90
15698;DHT22;7949;48.726;9.102;2023-03-23T01:06:26;12.90;99.90
15698;DHT22;7949;48.726;9.102;2023-03-23T01:08:53;12.80;99.90
15698;DHT22;7949;48.726;9.102;2023-03-23T01:11:22;12.80;99.90
15698;DHT22;7949;48.726;9.102;2023-03-23T01:13:49;12.70;99.90
15698;DHT22;7949;48.726;9.102;2023-03-23T01:16:16;12.70;99.90
15698;DHT22;7949;48.726;9.102;2023-03-23T01:18:43;12.70;99.90
15698;DHT22;7949;48.726;9.102;2023-03-23T01:21:12;12.70;99.90
15698;DHT22;7949;48.726;9.102;2023-03-23T01:23:40;12.60;99.90
15698;DHT22;7949;48.726;9.102;2023-03-23T01:26:09;12.60;99.90
15698;DHT22;7949;48.726;9.102;2023-03-23T01:28:36;12.60;99.90
15698;DHT22;7949;48.726;9.102;2023-03-23T01:31:05;12.50;99.90
15698;DHT22;7949;48.726;9.102;2023-03-23T01:33:33;12.60;99.90
15698;DHT22;7949;48.726;9.102;2023-03-23T01:36:03;12.60;99.90
15698;DHT22;7949;48.726;9.102;2023-03-23T01:38:31;12.60;99.90
15698;DHT22;7949;48.726;9.102;2023-03-23T01:40:58;12.50;99.90
15698;DHT22;7949;48.726;9.102;2023-03-23T01:43:25;12.40;99.90
15698;DHT22;7949;48.726;9.102;2023-03-23T01:45:52;12.40;99.90
15698;DHT22;7949;48.726;9.102;2023-03-23T01:48:23;12.40;99.90
15698;DHT22;7949;48.726;9.102;2023-03-23T01:50:56;12.30;99.90
15698;DHT22;7949;48.726;9.102;2023-03-23T01:53:27;12.40;99.90
15698;DHT22;7949;48.726;9.102;2023-03-23T01:55:57;12.40;99.90
15698;DHT22;7949;48.726;9.102;2023-03-23T01:58:26;12.40;99.90
15698;DHT22;7949;48.726;9.102;2023-03-23T02:00:54;12.40;99.90
15698;DHT22;7949;48.726;9.102;2023-03-23T02:03:22;12.40;99.90
15698;DHT22;7949;48.726;9.102;2023-03-23T02:05:50;12.50;99.90
15698;DHT22;7949;48.726;9.102;2023-03-23T02:08:18;12.50;99.90
15698;DHT22;7949;48.726;9.102;2023-03-23T02:10:46;12.50;99.90
15698;DHT22;7949;48.726;9.102;2023-03-23T02:13:15;12.60;99.90
15698;DHT22;7949;48.726;9.102;2023-03-23T02:15:51;12.50;99.90
15698;DHT22;7949;48.726;9.102;2023-03-23T02:18:39;12.40;99.90
15698;DHT22;7949;48.726;9.102;2023-03-23T02:27:41;12.50;99.90
15698;DHT22;7949;48.726;9.102;2023-03-23T02:30:23;12.40;99.90
15698;DHT22;7949;48.726;9.102;2023-03-23T02:33:17;12.40;99.90
15698;DHT22;7949;48.726;9.102;2023-03-23T02:35:48;12.40;99.90
15698;DHT22;7949;48.726;9.102;2023-03-23T02:38:19;12.60;99.90
15698;DHT22;7949;48.726;9.102;2023-03-23T02:40:49;12.50;99.90
15698;DHT22;7949;48.726;9.102;2023-03-23T02:43:19;12.60;99.90
15698;DHT22;7949;48.726;9.102;2023-03-23T02:45:48;12.50;99.90
15698;DHT22;7949;48.726;9.102;2023-03-23T02:48:19;12.50;99.90
15698;DHT22;7949;48.726;9.102;2023-03-23T02:50:49;12.40;99.90
15698;DHT22;7949;48.726;9.102;2023-03-23T02:53:22;12.30;99.90
15698;DHT22;7949;48.726;9.102;2023-03-23T02:55:51;12.30;99.90
15698;DHT22;7949;48.726;9.102;2023-03-23T02:58:19;12.30;99.90
15698;DHT22;7949;48.726;9.102;2023-03-23T03:00:48;12.30;99.90
15698;DHT22;7949;48.726;9.102;2023-03-23T03:03:20;12.40;99.90
15698;DHT22;7949;48.726;9.102;2023-03-23T03:05:55;12.30;99.90
15698;DHT22;7949;48.726;9.102;2023-03-23T03:08:30;12.30;99.90
15698;DHT22;7949;48.726;9.102;2023-03-23T03:11:06;12.30;99.90
15698;DHT22;7949;48.726;9.102;2023-03-23T03:13:41;12.20;99.90
15698;DHT22;7949;48.726;9.102;2023-03-23T03:16:16;12.30;99.90
15698;DHT22;7949;48.726;9.102;2023-03-23T03:18:54;12.30;99.90
15698;DHT22;7949;48.726;9.102;2023-03-23T03:21:25;12.30;99.90
15698;DHT22;7949;48.726;9.102;2023-03-23T03:23:54;12.30;99.90
15698;DHT22;7949;48.726;9.102;2023-03-23T03:26:25;12.40;99.90
15698;DHT22;7949;48.726;9.102;2023-03-23T03:28:54;12.50;99.90
15698;DHT22;7949;48.726;9.102;2023-03-23T03:31:23;12.60;99.90
15698;DHT22;7949;48.726;9.102;2023-03-23T03:33:54;12.60;99.90
15698;DHT22;7949;48.726;9.102;2023-03-23T03:36:26;12.50;99.90
15698;DHT22;7949;48.726;9.102;2023-03-23T03:39:02;12.50;99.90
15698;DHT22;7949;48.726;9.102;2023-03-23T03:41:31;12.50;99.90
15698;DHT22;7949;48.726;9.102;2023-03-23T03:43:58;12.40;99.90
15698;DHT22;7949;48.726;9.102;2023-03-23T03:46:25;12.60;99.90
15698;DHT22;7949;48.726;9.102;2023-03-23T03:48:57;12.60;99.90
15698;DHT22;7949;48.726;9.102;2023-03-23T03:51:25;12.60;99.90
15698;DHT22;7949;48.726;9.102;2023-03-23T03:53:53;12.60;99.90
15698;DHT22;7949;48.726;9.102;2023-03-23T03:56:20;12.50;99.90
15698;DHT22;7949;48.726;9.102;2023-03-23T03:58:48;12.60;99.90
15698;DHT22;7949;48.726;9.102;2023-03-23T04:01:16;12.60;99.90
15698;DHT22;7949;48.726;9.102;2023-03-23T04:03:44;12.60;99.90
15698;DHT22;7949;48.726;9.102;2023-03-23T04:06:12;12.60;99.90
15698;DHT22;7949;48.726;9.102;2023-03-23T04:08:40;12.60;99.90
15698;DHT22;7949;48.726;9.102;2023-03-23T04:11:09;12.60;99.90
15698;DHT22;7949;48.726;9.102;2023-03-23T04:13:36;12.70;99.90
15698;DHT22;7949;48.726;9.102;2023-03-23T04:16:03;12.70;99.90
15698;DHT22;7949;48.726;9.102;2023-03-23T04:18:31;12.80;99.90
15698;DHT22;7949;48.726;9.102;2023-03-23T04:21:00;12.70;99.90
15698;DHT22;7949;48.726;9.102;2023-03-23T04:23:30;12.90;99.90
15698;DHT22;7949;48.726;9.102;2023-03-23T04:25:59;12.70;99.90
15698;DHT22;7949;48.726;9.102;2023-03-23T04:28:26;12.80;99.90
15698;DHT22;7949;48.726;9.102;2023-03-23T04:30:55;12.80;99.90
15698;DHT22;7949;48.726;9.102;2023-03-23T04:33:23;12.70;99.90
15698;DHT22;7949;48.726;9.102;2023-03-23T04:35:52;12.70;99.90
15698;DHT22;7949;48.726;9.102;2023-03-23T04:38:21;12.70;99.90
15698;DHT22;7949;48.726;9.102;2023-03-23T04:40:53;12.80;99.90
15698;DHT22;7949;48.726;9.102;2023-03-23T04:43:21;13.00;99.90
15698;DHT22;7949;48.726;9.102;2023-03-23T04:45:52;13.00;99.90
15698;DHT22;7949;48.726;9.102;2023-03-23T04:48:21;13.00;99.90
15698;DHT22;7949;48.726;9.102;2023-03-23T04:50:49;13.00;99.90
15698;DHT22;7949;48.726;9.102;2023-03-23T04:53:17;12.90;99.90
15698;DHT22;7949;48.726;9.102;2023-03-23T04:55:46;12.90;99.90
15698;DHT22;7949;48.726;9.102;2023-03-23T04:58:16;13.00;99.90
15698;DHT22;7949;48.726;9.102;2023-03-23T05:00:43;13.00;99.90
15698;DHT22;7949;48.726;9.102;2023-03-23T05:03:15;13.10;99.90
15698;DHT22;7949;48.726;9.102;2023-03-23T05:05:42;13.20;99.90
15698;DHT22;7949;48.726;9.102;2023-03-23T05:08:12;13.30;99.90
15698;DHT22;7949;48.726;9.102;2023-03-23T05:10:40;13.20;99.90
15698;DHT22;7949;48.726;9.102;2023-03-23T05:13:07;13.30;99.90
15698;DHT22;7949;48.726;9.102;2023-03-23T05:15:35;13.30;99.90
15698;DHT22;7949;48.726;9.102;2023-03-23T05:18:02;13.40;99.90
15698;DHT22;7949;48.726;9.102;2023-03-23T05:20:30;13.40;99.90
15698;DHT22;7949;48.726;9.102;2023-03-23T05:22:58;13.50;99.90
15698;DHT22;7949;48.726;9.102;2023-03-23T05:25:25;13.40;99.90
15698;DHT22;7949;48.726;9.102;2023-03-23T05:27:52;13.40;99.90
15698;DHT22;7949;48.726;9.102;2023-03-23T05:30:20;13.50;99.90
15698;DHT22;7949;48.726;9.102;2023-03-23T05:32:49;13.40;99.90
15698;DHT22;7949;48.726;9.102;2023-03-23T05:35:16;13.40;99.90
15698;DHT22;7949;48.726;9.102;2023-03-23T05:37:44;13.40;99.90
15698;DHT22;7949;48.726;9.102;2023-03-23T05:40:12;13.50;99.90
15698;DHT22;7949;48.726;9.102;2023-03-23T05:42:40;13.50;99.90
15698;DHT22;7949;48.726;9.102;2023-03-23T05:45:09;13.40;99.90
15698;DHT22;7949;48.726;9.102;2023-03-23T05:47:36;13.40;99.90
15698;DHT22;7949;48.726;9.102;2023-03-23T05:50:06;13.50;99.90
15698;DHT22;7949;48.726;9.102;2023-03-23T05:52:34;13.50;99.90
